Time;durP1;ratioP1;P1;durP2;ratioP2;P2;SDS_P1;SDS_P2;PMS_P1;PMS_P2;Temp;Humidity;BMP_temperature;BMP_pressure;BME280_temperature;BME280_humidity;BME280_pressure;Samples;Min_cycle;Max_cycle;Signal;HPM_P1;HPM_P2
2021/05/03 00:02:22;;;;;;;0.87;0.83;;;;;;;3.13;86.36;100774.44;5072405;28;20185;-74
2021/05/03 00:04:48;;;;;;;0.40;0.40;;;;;;;3.08;86.33;100766.31;5071798;28;20256;-75
2021/05/03 00:07:13;;;;;;;0.17;0.17;;;;;;;3.07;86.43;100770.91;5071850;28;20194;-77
2021/05/03 00:09:38;;;;;;;0.20;0.10;;;;;;;3.05;86.39;100767.63;5071815;28;20171;-83
2021/05/03 00:12:04;;;;;;;0.23;0.23;;;;;;;3.09;86.25;100768.75;5071621;28;20635;-77
2021/05/03 00:14:30;;;;;;;0.40;0.10;;;;;;;3.06;86.15;100766.56;5070456;28;20388;-74
2021/05/03 00:16:55;;;;;;;0.00;0.00;;;;;;;3.07;86.09;100767.38;5071994;28;20205;-75
2021/05/03 00:19:20;;;;;;;0.57;0.57;;;;;;;3.06;86.02;100771.16;5071830;28;20177;-76
2021/05/03 00:21:46;;;;;;;0.50;0.13;;;;;;;3.02;86.30;100760.03;5072015;28;20207;-76
2021/05/03 00:24:11;;;;;;;0.37;0.37;;;;;;;3.01;86.28;100766.50;5071507;28;20175;-75
2021/05/03 00:26:37;;;;;;;0.27;0.27;;;;;;;3.03;86.14;100768.94;5071510;28;20360;-74
2021/05/03 00:29:03;;;;;;;0.00;0.00;;;;;;;3.05;85.96;100764.13;5071362;28;20578;-76
2021/05/03 00:31:28;;;;;;;0.43;0.43;;;;;;;3.10;85.73;100759.59;5071520;28;20403;-78
2021/05/03 00:33:53;;;;;;;7.53;0.83;;;;;;;3.09;85.64;100765.25;5071316;28;20178;-75
2021/05/03 00:36:19;;;;;;;0.20;0.20;;;;;;;3.12;85.55;100767.41;5071402;28;20170;-79
2021/05/03 00:38:45;;;;;;;0.17;0.17;;;;;;;3.18;84.94;100764.53;5071479;28;20178;-78
2021/05/03 00:41:10;;;;;;;0.00;0.00;;;;;;;3.19;85.17;100768.06;5069990;28;20315;-79
2021/05/03 00:43:35;;;;;;;0.10;0.10;;;;;;;3.18;84.80;100772.63;5071373;28;20645;-78
2021/05/03 00:46:01;;;;;;;0.47;0.47;;;;;;;3.16;84.90;100769.34;5070925;28;20684;-75
2021/05/03 00:48:26;;;;;;;0.30;0.30;;;;;;;3.14;85.49;100773.38;5070912;28;20193;-77
2021/05/03 00:50:52;;;;;;;0.10;0.10;;;;;;;3.08;85.68;100771.72;5071106;28;20671;-73
2021/05/03 00:53:18;;;;;;;0.17;0.10;;;;;;;3.02;86.03;100783.50;5070925;28;20175;-76
2021/05/03 00:55:44;;;;;;;0.23;0.23;;;;;;;2.97;86.46;100782.38;5071017;28;20183;-75
2021/05/03 00:58:10;;;;;;;1.37;0.63;;;;;;;2.94;86.77;100782.06;5071030;28;20170;-75
2021/05/03 01:00:35;;;;;;;0.30;0.30;;;;;;;2.94;87.12;100787.47;5070295;28;20177;-73
2021/05/03 01:03:01;;;;;;;0.77;0.47;;;;;;;2.94;86.72;100782.88;5070945;28;20630;-73
2021/05/03 01:05:29;;;;;;;0.40;0.20;;;;;;;2.98;86.73;100786.72;5072007;28;20692;-74
2021/05/03 01:07:56;;;;;;;0.20;0.20;;;;;;;3.06;86.00;100790.03;5072984;28;20266;-73
2021/05/03 01:10:21;;;;;;;0.00;0.00;;;;;;;3.06;86.16;100784.66;5071340;28;20193;-74
2021/05/03 01:12:46;;;;;;;0.83;0.47;;;;;;;3.06;85.96;100784.66;5071110;28;20171;-73
2021/05/03 01:15:12;;;;;;;2.10;1.90;;;;;;;3.08;86.17;100790.59;5070652;28;20538;-73
2021/05/03 01:17:42;;;;;;;1.33;0.20;;;;;;;3.08;86.04;100783.31;5069387;28;20541;-73
2021/05/03 01:20:14;;;;;;;0.43;0.43;;;;;;;3.09;86.15;100786.84;5070705;28;20178;-73
2021/05/03 01:22:40;;;;;;;0.03;0.03;;;;;;;3.11;85.91;100782.00;5070531;28;20174;-73
2021/05/03 01:25:09;;;;;;;0.57;0.57;;;;;;;3.12;86.25;100780.91;5070534;28;20186;-73
2021/05/03 01:27:35;;;;;;;0.67;0.67;;;;;;;3.13;86.48;100790.66;5070893;28;20175;-73
2021/05/03 01:30:05;;;;;;;0.30;0.30;;;;;;;3.08;86.70;100786.00;5070587;28;20208;-73
2021/05/03 01:32:30;;;;;;;0.47;0.47;;;;;;;3.07;86.72;100784.38;5070448;28;20923;-75
2021/05/03 01:34:57;;;;;;;1.13;0.40;;;;;;;3.05;86.83;100783.00;5070439;28;20253;-73
2021/05/03 01:37:22;;;;;;;0.20;0.20;;;;;;;3.01;87.16;100784.56;5070425;28;20171;-73
2021/05/03 01:39:47;;;;;;;0.20;0.20;;;;;;;2.95;87.29;100789.91;5070384;28;20233;-73
2021/05/03 01:42:13;;;;;;;0.00;0.00;;;;;;;2.92;87.32;100787.72;5070313;28;20171;-73
2021/05/03 01:44:40;;;;;;;0.00;0.00;;;;;;;2.92;87.38;100784.22;5070543;28;20196;-73
2021/05/03 01:47:05;;;;;;;0.80;0.80;;;;;;;2.90;87.09;100792.56;5070287;28;20255;-73
2021/05/03 01:49:31;;;;;;;0.40;0.40;;;;;;;2.87;86.89;100794.94;5070099;28;20187;-73
2021/05/03 01:51:56;;;;;;;9.77;0.80;;;;;;;2.87;87.03;100798.44;5070301;28;20391;-73
2021/05/03 01:54:22;;;;;;;1.47;1.47;;;;;;;2.86;86.76;100796.00;5070260;28;20181;-73
2021/05/03 01:56:48;;;;;;;0.30;0.30;;;;;;;2.85;86.77;100802.47;5070230;28;20175;-75
2021/05/03 01:59:13;;;;;;;0.00;0.00;;;;;;;2.88;86.26;100805.47;5070268;28;20186;-73
2021/05/03 02:01:40;;;;;;;0.00;0.00;;;;;;;2.87;86.41;100801.13;5070241;28;20198;-73
2021/05/03 02:04:07;;;;;;;0.60;0.60;;;;;;;2.83;86.51;100802.72;5070020;28;20219;-73
2021/05/03 02:06:33;;;;;;;0.10;0.10;;;;;;;2.81;86.53;100799.47;5070248;28;20674;-73
2021/05/03 02:09:07;;;;;;;0.07;0.07;;;;;;;2.80;86.66;100803.22;5070249;28;20209;-73
2021/05/03 02:11:33;;;;;;;1.23;1.23;;;;;;;2.84;86.41;100803.53;5071422;28;20202;-73
2021/05/03 02:13:59;;;;;;;0.43;0.10;;;;;;;2.87;86.27;100808.41;5073611;28;20582;-73
2021/05/03 02:16:24;;;;;;;0.17;0.17;;;;;;;2.83;86.48;100805.41;5073738;28;20181;-73
2021/05/03 02:18:50;;;;;;;0.30;0.30;;;;;;;2.81;86.38;100810.25;5073636;28;20588;-73
2021/05/03 02:21:15;;;;;;;0.37;0.37;;;;;;;2.84;86.27;100803.53;5073750;28;20198;-73
2021/05/03 02:23:40;;;;;;;0.57;0.43;;;;;;;2.81;86.54;100801.34;5073776;28;20269;-73
2021/05/03 02:26:05;;;;;;;0.47;0.47;;;;;;;2.77;86.90;100801.03;5072294;28;20289;-73
2021/05/03 02:28:31;;;;;;;0.33;0.30;;;;;;;2.78;86.83;100804.56;5073706;28;20257;-73
2021/05/03 02:30:56;;;;;;;0.30;0.30;;;;;;;2.77;86.96;100800.22;5073615;28;20206;-73
2021/05/03 02:33:21;;;;;;;0.70;0.70;;;;;;;2.76;86.77;100806.69;5073271;28;20400;-72
2021/05/03 02:35:47;;;;;;;0.13;0.13;;;;;;;2.74;87.25;100812.31;5073849;28;20185;-73
2021/05/03 02:38:12;;;;;;;0.37;0.37;;;;;;;2.76;87.08;100815.59;5073556;28;20175;-73
2021/05/03 02:40:38;;;;;;;1.07;1.07;;;;;;;2.76;86.99;100812.09;5073428;28;20167;-73
2021/05/03 02:43:04;;;;;;;0.93;0.93;;;;;;;2.73;87.19;100820.66;5073186;28;20182;-74
2021/05/03 02:45:30;;;;;;;0.60;0.60;;;;;;;2.67;87.23;100828.69;5073246;28;20174;-75
2021/05/03 02:47:56;;;;;;;0.00;0.00;;;;;;;2.66;87.05;100813.56;5072898;28;20269;-75
2021/05/03 02:50:23;;;;;;;0.33;0.33;;;;;;;2.65;87.17;100827.31;5073202;28;20261;-73
2021/05/03 02:52:50;;;;;;;0.13;0.13;;;;;;;2.64;87.24;100828.38;5073093;28;20175;-74
2021/05/03 02:55:16;;;;;;;0.37;0.37;;;;;;;2.62;87.45;100830.50;5073111;28;20201;-80
2021/05/03 02:57:43;;;;;;;0.10;0.10;;;;;;;2.59;87.48;100829.09;5073185;28;20170;-73
2021/05/03 03:00:11;;;;;;;0.10;0.10;;;;;;;2.61;87.46;100821.59;5072987;28;20558;-73
2021/05/03 03:02:36;;;;;;;0.10;0.10;;;;;;;2.62;87.23;100825.94;5072872;28;20216;-75
2021/05/03 03:05:03;;;;;;;0.10;0.10;;;;;;;2.60;87.35;100830.75;5072999;28;20182;-74
2021/05/03 03:07:29;;;;;;;0.00;0.00;;;;;;;2.58;87.54;100824.78;5072924;28;20251;-78
2021/05/03 03:09:54;;;;;;;1.40;0.40;;;;;;;2.61;87.40;100827.00;5072788;28;20762;-77
2021/05/03 03:12:19;;;;;;;0.37;0.37;;;;;;;2.61;87.43;100826.19;5072657;28;20690;-75
2021/05/03 03:14:45;;;;;;;0.60;0.60;;;;;;;2.59;87.32;100825.59;5072569;28;20234;-75
2021/05/03 03:17:10;;;;;;;0.77;0.63;;;;;;;2.56;87.33;100820.69;5072604;28;20181;-78
2021/05/03 03:19:40;;;;;;;0.97;0.83;;;;;;;2.58;87.23;100827.47;5072781;28;20179;-76
2021/05/03 03:22:06;;;;;;;0.20;0.20;;;;;;;2.58;87.27;100832.88;5071137;28;20178;-74
2021/05/03 03:24:31;;;;;;;0.00;0.00;;;;;;;2.57;87.51;100833.94;5071756;28;20266;-73
2021/05/03 03:26:57;;;;;;;0.00;0.00;;;;;;;2.56;87.40;100839.56;5072437;28;20375;-75
2021/05/03 03:29:22;;;;;;;0.27;0.27;;;;;;;2.56;87.49;100835.00;5072351;28;20178;-75
2021/05/03 03:31:48;;;;;;;0.20;0.20;;;;;;;2.54;87.26;100847.09;5072312;28;20174;-77
2021/05/03 03:34:13;;;;;;;0.50;0.50;;;;;;;2.48;87.47;100838.13;5072372;28;20630;-75
2021/05/03 03:36:39;;;;;;;0.40;0.40;;;;;;;2.50;87.81;100835.19;5072266;28;20171;-74
2021/05/03 03:39:06;;;;;;;0.33;0.33;;;;;;;2.52;87.80;100833.06;5072239;28;20263;-76
2021/05/03 03:41:31;;;;;;;0.80;0.80;;;;;;;2.50;87.87;100835.19;5072089;28;20214;-74
2021/05/03 03:43:57;;;;;;;0.30;0.30;;;;;;;2.52;87.80;100835.75;5072026;28;20207;-76
2021/05/03 03:46:22;;;;;;;0.17;0.17;;;;;;;2.53;87.51;100837.38;5072108;28;20247;-74
2021/05/03 03:48:48;;;;;;;0.70;0.70;;;;;;;2.57;87.76;100839.31;5070538;28;20402;-73
2021/05/03 03:51:14;;;;;;;0.10;0.10;;;;;;;2.59;87.43;100839.06;5071948;28;20558;-77
2021/05/03 03:53:39;;;;;;;0.23;0.23;;;;;;;2.65;87.04;100846.19;5071736;28;20179;-75
2021/05/03 03:56:05;;;;;;;0.13;0.13;;;;;;;2.63;87.63;100840.22;5071853;28;20207;-74
2021/05/03 03:58:30;;;;;;;0.47;0.47;;;;;;;2.61;87.14;100843.19;5071851;28;20178;-75
2021/05/03 04:00:55;;;;;;;0.70;0.70;;;;;;;2.55;87.39;100843.34;5071774;28;20177;-80
2021/05/03 04:03:23;;;;;;;3.93;0.40;;;;;;;2.53;87.79;100837.38;5070335;28;20541;-79
2021/05/03 04:08:51;;;;;;;0.53;0.53;;;;;;;2.52;87.64;100843.84;5071702;28;20412;-77
2021/05/03 04:22:21;;;;;;;0.20;0.20;;;;;;;2.59;87.49;100850.69;5071414;28;20178;-75
2021/05/03 04:27:10;;;;;;;1.03;1.00;;;;;;;2.55;87.95;100851.44;5071149;28;20186;-77
2021/05/03 04:29:35;;;;;;;0.20;0.20;;;;;;;2.56;87.96;100853.88;5071334;28;20622;-77
2021/05/03 04:32:00;;;;;;;0.43;0.43;;;;;;;2.54;88.10;100861.41;5070968;28;20273;-76
2021/05/03 04:34:27;;;;;;;0.17;0.17;;;;;;;2.58;88.07;100850.94;5071122;28;20257;-75
2021/05/03 04:36:52;;;;;;;0.10;0.10;;;;;;;2.62;87.85;100860.19;5071202;28;20167;-76
2021/05/03 04:39:17;;;;;;;0.30;0.30;;;;;;;2.61;88.10;100864.75;5071214;28;20182;-76
2021/05/03 04:41:43;;;;;;;0.97;0.97;;;;;;;2.60;88.22;100867.69;5070954;28;20183;-78
2021/05/03 04:44:08;;;;;;;0.10;0.10;;;;;;;2.58;88.07;100865.22;5071007;28;20231;-74
2021/05/03 04:46:33;;;;;;;0.40;0.40;;;;;;;2.63;88.17;100864.50;5070858;28;20226;-77
2021/05/03 04:48:58;;;;;;;1.00;1.00;;;;;;;2.68;88.08;100860.00;5070912;28;20343;-76
2021/05/03 04:51:24;;;;;;;0.27;0.27;;;;;;;2.74;88.24;100874.34;5071031;28;20163;-76
2021/05/03 04:53:49;;;;;;;0.63;0.63;;;;;;;2.77;88.11;100871.19;5071137;28;20253;-79
2021/05/03 04:56:14;;;;;;;0.43;0.43;;;;;;;2.79;88.07;100876.31;5070971;28;20205;-74
2021/05/03 04:58:40;;;;;;;1.60;1.53;;;;;;;2.83;87.81;100870.16;5070893;28;20627;-80
2021/05/03 05:01:05;;;;;;;0.00;0.00;;;;;;;2.90;88.04;100875.41;5070954;28;20182;-74
2021/05/03 05:03:30;;;;;;;0.83;0.77;;;;;;;2.95;87.52;100870.88;5070840;28;20178;-76
2021/05/03 05:05:56;;;;;;;0.50;0.50;;;;;;;3.02;87.13;100876.06;5070672;28;20209;-73
2021/05/03 05:08:22;;;;;;;0.40;0.30;;;;;;;3.08;87.24;100877.78;5071103;28;20205;-73
2021/05/03 05:10:48;;;;;;;0.83;0.83;;;;;;;3.16;86.86;100874.63;5070857;28;20169;-73
2021/05/03 05:13:14;;;;;;;1.07;0.73;;;;;;;3.24;86.61;100887.69;5070579;28;20250;-75
2021/05/03 05:15:39;;;;;;;0.53;0.53;;;;;;;3.33;86.36;100876.44;5070720;28;20179;-79
2021/05/03 05:18:07;;;;;;;1.23;1.23;;;;;;;3.39;86.47;100884.38;5070705;28;20516;-83
2021/05/03 05:20:32;;;;;;;0.00;0.00;;;;;;;3.45;86.36;100877.13;5070671;28;20396;-74
2021/05/03 05:22:58;;;;;;;0.73;0.73;;;;;;;3.51;86.01;100881.53;5070416;28;20200;-74
2021/05/03 05:25:23;;;;;;;1.70;1.50;;;;;;;3.55;85.77;100880.75;5070542;28;20685;-73
2021/05/03 05:27:49;;;;;;;1.27;1.00;;;;;;;3.57;86.15;100875.91;5070548;28;20182;-77
2021/05/03 05:30:15;;;;;;;0.40;0.40;;;;;;;3.61;86.18;100880.81;5070577;28;20215;-78
2021/05/03 05:32:40;;;;;;;2.53;1.13;;;;;;;3.63;85.88;100884.09;5070606;28;20181;-76
2021/05/03 05:35:08;;;;;;;1.70;1.13;;;;;;;3.66;85.68;100886.28;5070905;28;20589;-78
2021/05/03 05:37:34;;;;;;;0.90;0.27;;;;;;;3.68;84.98;100887.66;5070560;28;20215;-75
2021/05/03 05:39:59;;;;;;;0.97;0.93;;;;;;;3.70;85.26;100882.81;5070597;28;20178;-74
2021/05/03 05:42:24;;;;;;;0.20;0.20;;;;;;;3.78;84.64;100889.66;5070369;28;20182;-82
2021/05/03 05:44:50;;;;;;;2.00;1.20;;;;;;;3.85;84.52;100884.84;5070397;28;20178;-77
2021/05/03 05:47:15;;;;;;;0.53;0.53;;;;;;;3.94;84.86;100901.41;5072605;28;20676;-73
2021/05/03 05:49:40;;;;;;;1.10;1.10;;;;;;;3.94;84.68;100891.44;5074164;28;20255;-85
2021/05/03 05:52:06;;;;;;;2.13;1.23;;;;;;;4.00;84.84;100889.56;5074261;28;20179;-76
2021/05/03 05:54:31;;;;;;;0.70;0.70;;;;;;;4.05;84.19;100885.03;5074265;28;20181;-74
2021/05/03 05:56:57;;;;;;;1.53;1.20;;;;;;;4.11;84.14;100883.19;5074156;28;20175;-76
2021/05/03 05:59:23;;;;;;;0.90;0.77;;;;;;;4.17;83.67;100888.38;5074233;28;20170;-76
2021/05/03 06:01:49;;;;;;;0.77;0.77;;;;;;;4.24;83.56;100882.75;5072798;28;20214;-79
2021/05/03 06:04:14;;;;;;;0.53;0.53;;;;;;;4.32;82.89;100889.56;5073843;28;20632;-82
2021/05/03 06:06:40;;;;;;;5.97;0.83;;;;;;;4.51;83.05;100884.59;5074123;28;20289;-75
2021/05/03 06:09:05;;;;;;;3.90;3.63;;;;;;;4.73;81.90;100877.13;5074329;28;20182;-74
2021/05/03 06:11:31;;;;;;;2.53;1.53;;;;;;;4.90;82.09;100883.19;5074142;28;20189;-78
2021/05/03 06:13:56;;;;;;;0.50;0.50;;;;;;;4.93;80.94;100885.38;5074314;28;20224;-79
2021/05/03 06:16:22;;;;;;;0.60;0.60;;;;;;;4.91;80.87;100886.69;5073864;28;20424;-74
2021/05/03 06:18:47;;;;;;;1.17;1.13;;;;;;;4.88;81.41;100893.47;5073826;28;20178;-80
2021/05/03 06:21:12;;;;;;;0.70;0.70;;;;;;;4.86;81.46;100895.63;5073851;28;20196;-76
2021/05/03 06:23:38;;;;;;;1.27;1.27;;;;;;;4.85;81.52;100888.56;5073701;28;20572;-72
2021/05/03 06:26:03;;;;;;;0.30;0.30;;;;;;;4.80;80.85;100893.97;5072292;28;20200;-78
2021/05/03 06:28:29;;;;;;;0.53;0.53;;;;;;;4.84;80.71;100891.56;5073693;28;20179;-77
2021/05/03 06:30:58;;;;;;;0.83;0.83;;;;;;;4.86;80.50;100887.50;5073614;28;20530;-75
2021/05/03 06:33:24;;;;;;;0.33;0.30;;;;;;;4.92;80.63;100886.47;5073429;28;20592;-73
2021/05/03 06:35:50;;;;;;;0.87;0.80;;;;;;;4.89;80.53;100892.38;5073364;28;20232;-75
2021/05/03 06:38:16;;;;;;;1.30;1.20;;;;;;;4.95;80.37;100887.81;5073514;28;20257;-73
2021/05/03 06:40:42;;;;;;;0.40;0.40;;;;;;;4.92;80.20;100886.47;5073521;28;20746;-79
2021/05/03 06:43:07;;;;;;;0.63;0.63;;;;;;;4.90;80.22;100888.59;5073238;28;20182;-77
2021/05/03 06:45:34;;;;;;;0.50;0.50;;;;;;;4.90;80.78;100894.00;5073376;28;20171;-74
2021/05/03 06:48:00;;;;;;;1.37;1.27;;;;;;;4.89;80.99;100899.69;5072902;28;20630;-76
2021/05/03 06:50:26;;;;;;;0.73;0.73;;;;;;;4.97;81.83;100899.19;5073450;28;20181;-74
2021/05/03 06:52:52;;;;;;;1.40;1.03;;;;;;;5.00;80.23;100898.66;5073041;28;20190;-73
2021/05/03 06:55:17;;;;;;;0.57;0.50;;;;;;;5.07;80.75;100905.50;5073190;28;20202;-78
2021/05/03 06:57:43;;;;;;;0.30;0.30;;;;;;;5.15;80.08;100898.75;5072112;28;20182;-77
2021/05/03 07:00:11;;;;;;;1.77;1.67;;;;;;;5.22;80.18;100903.94;5073033;28;20425;-76
2021/05/03 07:02:37;;;;;;;0.60;0.40;;;;;;;5.21;78.82;100903.13;5072991;28;20175;-74
2021/05/03 07:05:03;;;;;;;0.80;0.63;;;;;;;5.17;80.08;100909.31;5073101;28;20170;-79
2021/05/03 07:07:28;;;;;;;1.03;0.57;;;;;;;5.18;78.89;100900.91;5072997;28;20210;-74
2021/05/03 07:09:53;;;;;;;1.63;0.77;;;;;;;5.29;80.00;100905.31;5066273;28;20198;-72
2021/05/03 07:12:21;;;;;;;0.43;0.43;;;;;;;5.37;79.79;100902.09;5072516;28;20190;-76
2021/05/03 07:14:47;;;;;;;0.20;0.20;;;;;;;5.44;79.86;100906.44;5072662;28;20183;-77
2021/05/03 07:17:13;;;;;;;1.07;1.03;;;;;;;5.34;79.58;100923.47;5072257;28;20204;-84
2021/05/03 07:19:38;;;;;;;0.00;0.00;;;;;;;5.27;80.47;100923.72;5072332;28;20638;-77
2021/05/03 07:22:09;;;;;;;1.00;1.00;;;;;;;5.16;80.53;100921.22;5072652;28;20252;-81
2021/05/03 07:24:38;;;;;;;1.50;1.17;;;;;;;5.18;82.23;100919.88;5072662;28;20256;-73
2021/05/03 07:27:07;;;;;;;1.17;1.07;;;;;;;5.11;83.40;100926.63;5072525;28;20281;-77
2021/05/03 07:29:32;;;;;;;0.20;0.10;;;;;;;5.14;84.17;100917.97;5072787;28;20183;-72
2021/05/03 07:31:58;;;;;;;1.43;1.30;;;;;;;5.07;84.37;100913.63;5074690;28;20181;-72
2021/05/03 07:34:23;;;;;;;0.57;0.57;;;;;;;5.13;85.04;100917.16;5074027;28;20228;-72
2021/05/03 07:36:49;;;;;;;6.90;1.23;;;;;;;5.13;84.45;100917.16;5072628;28;20182;-72
2021/05/03 07:39:14;;;;;;;3.13;1.10;;;;;;;5.13;84.00;100916.34;5072716;28;20178;-72
2021/05/03 07:41:41;;;;;;;2.20;2.00;;;;;;;5.20;84.65;100915.00;5072083;28;20369;-72
2021/05/03 07:44:08;;;;;;;0.27;0.27;;;;;;;5.18;83.50;100911.75;5072087;28;20648;-72
2021/05/03 07:46:34;;;;;;;1.07;0.80;;;;;;;5.19;84.17;100918.78;5072028;28;20601;-71
2021/05/03 07:49:00;;;;;;;1.60;1.37;;;;;;;5.30;84.76;100922.38;5071845;28;20557;-72
2021/05/03 07:51:27;;;;;;;2.03;1.70;;;;;;;5.41;84.43;100910.50;5072002;28;20650;-71
2021/05/03 07:53:52;;;;;;;1.83;1.73;;;;;;;5.57;84.80;100904.06;5071756;28;20183;-71
2021/05/03 07:56:19;;;;;;;0.87;0.87;;;;;;;5.68;83.82;100899.47;5072165;28;20254;-71
2021/05/03 07:58:45;;;;;;;1.57;1.47;;;;;;;5.76;83.27;100907.06;5071722;28;20356;-71
2021/05/03 08:01:12;;;;;;;1.40;1.30;;;;;;;5.75;83.46;100908.16;5071954;28;20174;-72
2021/05/03 08:03:39;;;;;;;0.67;0.67;;;;;;;5.80;83.84;100905.47;5071575;28;20193;-73
2021/05/03 08:06:06;;;;;;;1.00;0.97;;;;;;;5.88;83.76;100896.78;5071662;28;20199;-71
2021/05/03 08:08:32;;;;;;;2.03;1.90;;;;;;;5.89;81.74;100903.84;5071683;28;20229;-71
2021/05/03 08:10:57;;;;;;;1.57;1.47;;;;;;;5.97;81.10;100899.84;5071131;28;20206;-72
2021/05/03 08:13:23;;;;;;;0.37;0.37;;;;;;;6.03;79.61;100887.91;5070979;28;20232;-72
2021/05/03 08:15:51;;;;;;;0.43;0.40;;;;;;;6.07;80.17;100890.88;5071630;28;20166;-71
2021/05/03 08:18:16;;;;;;;0.90;0.83;;;;;;;6.14;80.00;100892.25;5071123;28;20232;-72
2021/05/03 08:20:42;;;;;;;1.77;1.33;;;;;;;6.23;79.48;100889.81;5071257;28;20649;-71
2021/05/03 08:23:09;;;;;;;2.80;2.60;;;;;;;6.38;78.65;100880.88;5071106;28;20212;-72
2021/05/03 08:25:36;;;;;;;1.17;1.13;;;;;;;6.50;78.90;100881.38;5064599;28;20523;-71
2021/05/03 08:28:01;;;;;;;1.63;1.53;;;;;;;6.44;77.23;100885.19;5068455;28;20189;-71
2021/05/03 08:30:27;;;;;;;1.60;1.50;;;;;;;6.47;78.52;100879.22;5069621;28;20175;-72
2021/05/03 08:32:52;;;;;;;1.90;1.73;;;;;;;6.49;77.11;100877.03;5071092;28;20190;-71
2021/05/03 08:35:18;;;;;;;1.50;1.37;;;;;;;6.59;76.57;100885.16;5070162;28;20182;-72
2021/05/03 08:37:43;;;;;;;1.40;0.77;;;;;;;6.78;76.20;100871.81;5070787;28;20848;-72
2021/05/03 08:40:09;;;;;;;1.53;1.43;;;;;;;6.93;75.32;100879.09;5071656;28;20174;-73
2021/05/03 08:42:35;;;;;;;1.23;0.90;;;;;;;7.01;74.24;100884.00;5070777;28;20231;-74
2021/05/03 08:45:01;;;;;;;2.53;1.17;;;;;;;7.17;75.39;100877.41;5070938;28;20291;-72
2021/05/03 08:47:32;;;;;;;0.20;0.20;;;;;;;7.38;74.63;100878.97;5069519;28;20224;-72
2021/05/03 08:50:06;;;;;;;0.80;0.80;;;;;;;7.29;72.38;100877.09;5070723;28;20171;-72
2021/05/03 08:53:09;;;;;;;1.80;1.70;;;;;;;7.16;71.53;100867.63;5070111;28;20606;-72
2021/05/03 08:55:23;;;;;;;0.50;0.50;;;;;;;7.12;71.38;100872.81;5068646;28;20179;-72
2021/05/03 08:57:49;;;;;;;1.13;1.10;;;;;;;7.09;70.57;100851.63;5070686;28;20175;-72
2021/05/03 09:00:16;;;;;;;1.37;1.27;;;;;;;7.26;72.03;100850.47;5070729;28;20258;-73
2021/05/03 09:02:46;;;;;;;1.30;1.20;;;;;;;7.40;71.60;100846.88;5070545;28;20205;-71
2021/05/03 09:05:12;;;;;;;1.47;1.37;;;;;;;7.63;71.47;100839.09;5070529;28;20627;-72
2021/05/03 09:07:50;;;;;;;0.37;0.37;;;;;;;8.11;69.87;100837.41;5070623;28;20207;-72
2021/05/03 09:10:19;;;;;;;0.27;0.27;;;;;;;8.19;67.53;100834.06;5070434;28;20726;-72
2021/05/03 09:12:44;;;;;;;0.33;0.33;;;;;;;8.13;68.33;100832.50;5070427;28;20186;-72
2021/05/03 09:15:11;;;;;;;8.03;1.33;;;;;;;8.20;67.88;100834.88;5070577;28;20175;-72
2021/05/03 09:17:40;;;;;;;1.43;1.33;;;;;;;8.29;66.31;100828.53;5070457;28;20197;-72
2021/05/03 09:20:13;;;;;;;1.63;1.53;;;;;;;8.34;65.51;100833.13;5070521;28;20194;-71
2021/05/03 09:22:44;;;;;;;0.23;0.23;;;;;;;8.35;65.55;100821.94;5070202;28;20163;-72
2021/05/03 09:25:47;;;;;;;1.77;1.60;;;;;;;8.78;67.18;100816.59;5070515;28;20257;-71
2021/05/03 09:28:18;;;;;;;0.67;0.67;;;;;;;8.93;65.17;100823.78;5070519;28;20543;-72
2021/05/03 09:30:44;;;;;;;0.83;0.83;;;;;;;8.79;63.23;100806.50;5070412;28;20240;-72
2021/05/03 09:33:35;;;;;;;0.67;0.67;;;;;;;8.86;64.33;100813.25;5070229;28;20179;-72
2021/05/03 09:36:12;;;;;;;0.60;0.60;;;;;;;8.97;64.05;100813.94;5070561;28;20429;-72
2021/05/03 09:38:42;;;;;;;0.70;0.60;;;;;;;9.01;62.27;100795.91;5070413;28;20551;-72
2021/05/03 09:41:19;;;;;;;0.40;0.40;;;;;;;9.36;63.41;100796.50;5070371;28;20178;-74
2021/05/03 09:44:07;;;;;;;1.40;1.30;;;;;;;9.61;64.00;100785.22;5070062;28;20636;-72
2021/05/03 09:46:38;;;;;;;1.00;1.00;;;;;;;9.71;60.53;100801.44;5070362;28;20191;-71
2021/05/03 09:49:06;;;;;;;0.67;0.43;;;;;;;9.72;58.91;100789.44;5069851;28;20265;-72
2021/05/03 09:51:34;;;;;;;0.80;0.63;;;;;;;9.80;58.60;100802.38;5070252;28;20171;-72
2021/05/03 09:54:05;;;;;;;0.13;0.13;;;;;;;9.74;58.29;100795.41;5070069;28;20268;-72
2021/05/03 09:56:52;;;;;;;1.10;1.00;;;;;;;9.86;58.86;100786.75;5070730;28;20165;-72
2021/05/03 09:59:36;;;;;;;3.43;3.23;;;;;;;9.93;58.09;100775.44;5069973;28;20170;-71
2021/05/03 10:02:03;;;;;;;0.63;0.63;;;;;;;9.87;58.21;100777.47;5069507;28;20723;-71
2021/05/03 10:04:29;;;;;;;0.60;0.60;;;;;;;9.86;58.65;100770.38;5069897;28;20171;-72
2021/05/03 10:06:54;;;;;;;6.53;1.50;;;;;;;9.81;57.50;100767.72;5067975;28;20695;-72
2021/05/03 10:09:20;;;;;;;0.50;0.50;;;;;;;9.75;57.64;100768.91;5069304;28;20183;-72
2021/05/03 10:11:45;;;;;;;0.43;0.43;;;;;;;9.83;56.32;100770.94;5068461;28;20165;-72
2021/05/03 10:14:11;;;;;;;0.57;0.57;;;;;;;9.81;54.28;100752.16;5069915;28;20556;-75
2021/05/03 10:16:37;;;;;;;0.87;0.87;;;;;;;9.93;53.43;100753.59;5069546;28;20220;-72
2021/05/03 10:19:05;;;;;;;0.50;0.50;;;;;;;9.94;53.13;100745.13;5063950;28;20218;-72
2021/05/03 10:21:30;;;;;;;0.57;0.57;;;;;;;9.96;54.21;100751.09;5068457;28;20182;-72
2021/05/03 10:23:56;;;;;;;0.80;0.80;;;;;;;10.07;53.85;100762.63;5069128;28;20235;-71
2021/05/03 10:26:25;;;;;;;1.37;1.30;;;;;;;10.22;54.53;100740.56;5068086;28;20202;-72
2021/05/03 10:29:01;;;;;;;0.30;0.30;;;;;;;10.34;54.27;100751.78;5069424;28;20182;-75
2021/05/03 10:31:26;;;;;;;0.33;0.33;;;;;;;10.23;53.69;100747.63;5069423;28;20174;-74
2021/05/03 10:33:52;;;;;;;2.93;1.03;;;;;;;10.29;55.11;100745.63;5070909;28;20189;-72
2021/05/03 10:36:35;;;;;;;0.70;0.60;;;;;;;10.31;51.34;100744.22;5073058;28;20553;-72
2021/05/03 10:39:01;;;;;;;0.60;0.60;;;;;;;10.33;50.58;100741.19;5062763;28;20671;-73
2021/05/03 10:41:28;;;;;;;0.93;0.70;;;;;;;10.45;51.03;100740.69;5071369;28;20216;-71
2021/05/03 10:44:18;;;;;;;0.20;0.20;;;;;;;10.50;50.21;100732.38;5073235;28;20284;-76
2021/05/03 10:49:13;;;;;;;1.10;1.10;;;;;;;10.45;50.51;100725.09;5073049;28;20174;-76
2021/05/03 10:57:03;;;;;;;0.87;0.70;;;;;;;10.35;50.37;100723.38;5073258;28;20204;-75
2021/05/03 10:59:58;;;;;;;0.70;0.70;;;;;;;10.62;51.77;100716.28;5072858;28;20178;-71
2021/05/03 11:02:26;;;;;;;0.83;0.77;;;;;;;10.69;49.48;100713.94;5055951;28;20379;-72
2021/05/03 11:05:24;;;;;;;0.50;0.50;;;;;;;10.61;47.79;100715.47;5073049;28;20589;-71
2021/05/03 11:08:04;;;;;;;1.00;0.93;;;;;;;10.50;48.10;100719.53;5072912;28;20561;-71
2021/05/03 11:10:55;;;;;;;0.63;0.63;;;;;;;10.65;48.49;100710.22;5072999;28;20184;-72
2021/05/03 11:13:41;;;;;;;2.53;0.77;;;;;;;10.99;49.99;100707.00;5072805;28;20192;-71
2021/05/03 11:16:28;;;;;;;1.13;0.70;;;;;;;11.20;49.29;100707.38;5072789;28;20175;-72
2021/05/03 11:18:56;;;;;;;0.53;0.53;;;;;;;11.03;47.01;100708.03;5071466;28;20186;-72
2021/05/03 11:21:41;;;;;;;0.57;0.57;;;;;;;10.89;47.88;100705.31;5072781;28;20174;-72
2021/05/03 11:24:30;;;;;;;0.40;0.40;;;;;;;10.84;46.80;100704.59;5072559;28;20631;-71
2021/05/03 11:27:06;;;;;;;0.63;0.63;;;;;;;10.93;48.12;100694.56;5072730;28;20225;-73
2021/05/03 11:29:40;;;;;;;0.50;0.50;;;;;;;10.87;45.16;100690.34;5072299;28;20240;-71
2021/05/03 11:32:06;;;;;;;1.10;0.50;;;;;;;10.97;46.85;100696.38;5072460;28;20553;-72
2021/05/03 11:34:38;;;;;;;0.93;0.63;;;;;;;11.14;46.39;100686.72;5072508;28;20185;-71
2021/05/03 11:37:14;;;;;;;0.83;0.60;;;;;;;11.37;45.53;100693.81;5072377;28;20167;-71
2021/05/03 11:45:28;;;;;;;1.23;1.13;;;;;;;11.47;45.08;100688.13;5008360;28;20187;-71
2021/05/03 11:47:55;;;;;;;1.40;1.30;;;;;;;11.67;44.51;100686.78;5009096;28;20212;-73
2021/05/03 11:50:23;;;;;;;0.67;0.67;;;;;;;11.72;44.93;100683.13;5039353;28;20653;-71
2021/05/03 11:52:48;;;;;;;0.83;0.83;;;;;;;11.70;45.25;100679.88;5071307;28;20186;-72
2021/05/03 11:55:20;;;;;;;0.53;0.50;;;;;;;11.38;45.21;100689.16;5071455;28;20179;-71
2021/05/03 11:57:47;;;;;;;1.57;1.03;;;;;;;11.36;45.36;100680.47;5071580;28;20520;-72
2021/05/03 12:00:18;;;;;;;0.20;0.20;;;;;;;11.23;43.72;100668.44;5071493;28;20281;-72
2021/05/03 12:02:45;;;;;;;0.63;0.63;;;;;;;11.22;45.61;100670.38;5071094;28;20175;-72
2021/05/03 12:05:15;;;;;;;0.60;0.60;;;;;;;11.15;45.37;100664.56;5066406;28;20179;-72